createdAt,value
2023-01-27T00:01:10.846Z,8.15
2023-01-27T00:03:38.939Z,8.68
2023-01-27T00:06:11.958Z,9.50
2023-01-27T00:08:40.223Z,8.18
2023-01-27T00:11:26.407Z,8.95
2023-01-27T00:13:56.631Z,8.15
2023-01-27T00:16:25.110Z,8.15
2023-01-27T00:18:53.431Z,8.13
2023-01-27T00:21:39.133Z,8.10
2023-01-27T00:24:25.407Z,8.02
2023-01-27T00:26:53.701Z,8.27
2023-01-27T00:29:23.763Z,7.88
2023-01-27T00:32:10.769Z,7.95
2023-01-27T00:34:41.456Z,7.22
2023-01-27T00:37:09.460Z,7.45
2023-01-27T00:39:38.661Z,7.18
2023-01-27T00:42:06.946Z,6.80
2023-01-27T00:44:38.595Z,6.28
2023-01-27T00:47:06.909Z,6.28
2023-01-27T00:49:34.878Z,6.05
2023-01-27T00:52:03.021Z,5.88
2023-01-27T00:54:31.577Z,5.93
2023-01-27T00:56:59.629Z,5.55
2023-01-27T00:59:28.726Z,5.75
2023-01-27T01:01:58.105Z,4.82
2023-01-27T01:04:26.344Z,5.13
2023-01-27T01:06:54.378Z,4.88
2023-01-27T01:09:22.526Z,5.72
2023-01-27T01:11:50.579Z,5.07
2023-01-27T01:14:18.479Z,5.38
2023-01-27T01:16:46.521Z,5.05
2023-01-27T01:19:15.813Z,4.40
2023-01-27T01:21:43.782Z,3.72
2023-01-27T01:24:11.796Z,3.65
2023-01-27T01:26:39.825Z,4.43
2023-01-27T01:29:07.853Z,3.25
2023-01-27T01:31:35.853Z,4.00
2023-01-27T01:34:05.528Z,4.38
2023-01-27T01:36:35.026Z,4.00
2023-01-27T01:39:06.392Z,4.07
2023-01-27T01:41:34.537Z,3.25
2023-01-27T01:44:20.934Z,3.92
2023-01-27T01:46:48.996Z,3.88
2023-01-27T01:49:19.825Z,4.03
2023-01-27T01:51:53.727Z,3.75
2023-01-27T01:54:27.141Z,3.42
2023-01-27T01:57:03.389Z,4.05
2023-01-27T01:59:35.036Z,4.03
2023-01-27T02:02:08.209Z,3.33
2023-01-27T02:04:41.557Z,3.90
2023-01-27T02:07:15.766Z,3.45
2023-01-27T02:09:44.266Z,3.00
2023-01-27T02:12:12.501Z,2.83
2023-01-27T02:14:41.223Z,3.28
2023-01-27T02:17:10.417Z,2.22
2023-01-27T02:19:46.041Z,2.58
2023-01-27T02:22:25.571Z,1.92
2023-01-27T02:25:01.284Z,2.30
2023-01-27T02:27:32.978Z,1.63
2023-01-27T02:30:01.227Z,1.70
2023-01-27T02:32:29.223Z,1.50
2023-01-27T02:34:58.421Z,1.38
2023-01-27T02:37:27.371Z,1.65
2023-01-27T02:39:57.533Z,1.50
2023-01-27T02:42:25.605Z,1.45
2023-01-27T02:44:55.129Z,1.63
2023-01-27T02:47:23.499Z,1.40
2023-01-27T02:49:52.029Z,1.45
2023-01-27T02:52:20.024Z,1.90
2023-01-27T02:54:48.045Z,1.75
2023-01-27T02:57:16.257Z,1.40
2023-01-27T02:59:57.688Z,1.40
2023-01-27T03:02:30.372Z,1.77
2023-01-27T03:04:58.395Z,1.50
2023-01-27T03:07:29.464Z,1.58
2023-01-27T03:09:57.636Z,1.55
2023-01-27T03:12:25.686Z,1.80
2023-01-27T03:15:12.082Z,1.50
2023-01-27T03:17:59.753Z,1.48
2023-01-27T03:20:29.008Z,1.40
2023-01-27T03:22:57.096Z,1.48
2023-01-27T03:25:26.392Z,1.40
2023-01-27T03:27:57.347Z,1.25
2023-01-27T03:30:45.545Z,1.38
2023-01-27T03:33:22.469Z,1.23
2023-01-27T03:39:04.793Z,1.23
2023-01-27T03:41:50.269Z,1.73
2023-01-27T03:44:35.762Z,1.55
2023-01-27T03:47:04.323Z,1.60
2023-01-27T03:49:33.753Z,1.52
2023-01-27T03:52:02.173Z,1.15
2023-01-27T03:54:31.237Z,1.25
2023-01-27T03:57:06.463Z,1.38
2023-01-27T03:59:35.901Z,1.48
2023-01-27T04:02:21.850Z,0.93
2023-01-27T04:05:09.116Z,1.52
2023-01-27T04:07:38.091Z,1.60
2023-01-27T04:10:08.333Z,1.15
2023-01-27T04:12:35.611Z,1.10
2023-01-27T04:15:04.073Z,1.45
2023-01-27T04:17:38.753Z,1.65
2023-01-27T04:20:10.642Z,1.08
2023-01-27T04:22:39.100Z,1.15
2023-01-27T04:25:08.569Z,1.50
2023-01-27T04:27:36.617Z,1.52
2023-01-27T04:30:05.784Z,1.08
2023-01-27T04:32:33.792Z,1.48
2023-01-27T04:35:01.837Z,1.40
2023-01-27T04:37:31.565Z,1.40
2023-01-27T04:39:59.486Z,1.33
2023-01-27T04:42:27.594Z,1.65
2023-01-27T04:44:55.635Z,1.63
2023-01-27T04:47:23.606Z,1.20
2023-01-27T04:49:51.639Z,1.45
2023-01-27T04:52:19.742Z,1.70
2023-01-27T04:54:51.217Z,1.05
2023-01-27T04:57:20.240Z,1.63
2023-01-27T04:59:48.166Z,1.55
2023-01-27T05:02:16.247Z,1.38
2023-01-27T05:04:44.428Z,1.35
2023-01-27T05:07:12.462Z,1.80
2023-01-27T05:09:40.494Z,1.30
2023-01-27T05:12:10.375Z,1.52
2023-01-27T05:14:38.346Z,1.27
2023-01-27T05:17:06.328Z,1.25
2023-01-27T05:19:34.311Z,1.73
2023-01-27T05:22:02.299Z,1.48
2023-01-27T05:24:31.460Z,1.25
2023-01-27T05:26:59.813Z,1.50
2023-01-27T05:29:29.489Z,1.60
2023-01-27T05:31:58.128Z,1.13
2023-01-27T05:34:26.206Z,1.77
2023-01-27T05:36:54.057Z,1.70
2023-01-27T05:39:22.548Z,1.65
2023-01-27T05:41:50.667Z,1.52
2023-01-27T05:44:18.803Z,1.20
2023-01-27T05:46:48.241Z,1.30
2023-01-27T05:49:16.437Z,1.10
2023-01-27T05:51:44.436Z,1.27
2023-01-27T05:54:12.323Z,1.45
2023-01-27T05:56:40.763Z,1.60
2023-01-27T05:59:08.814Z,1.23
2023-01-27T06:01:37.634Z,1.45
2023-01-27T06:04:08.566Z,1.00
2023-01-27T06:06:36.727Z,1.40
2023-01-27T06:09:05.115Z,1.40
2023-01-27T06:11:33.245Z,1.45
2023-01-27T06:14:01.313Z,1.10
2023-01-27T06:16:29.490Z,1.83
2023-01-27T06:18:58.765Z,1.05
2023-01-27T06:21:28.197Z,1.08
2023-01-27T06:23:58.090Z,1.00
2023-01-27T06:26:26.248Z,0.90
2023-01-27T06:28:54.280Z,1.00
2023-01-27T06:31:23.409Z,0.88
2023-01-27T06:33:52.045Z,0.82
2023-01-27T06:36:22.778Z,0.65
2023-01-27T06:38:52.676Z,0.90
2023-01-27T06:41:21.246Z,0.90
2023-01-27T06:43:49.399Z,1.00
2023-01-27T06:46:17.461Z,0.75
2023-01-27T06:48:45.656Z,0.90
2023-01-27T06:51:14.178Z,1.15
2023-01-27T06:53:42.916Z,1.90
2023-01-27T06:56:12.360Z,1.10
2023-01-27T06:58:40.344Z,1.02
2023-01-27T07:01:08.533Z,1.30
2023-01-27T07:03:36.904Z,1.27
2023-01-27T07:06:05.756Z,1.13
2023-01-27T07:08:34.017Z,1.17
2023-01-27T07:11:05.466Z,1.13
2023-01-27T07:13:34.821Z,1.30
2023-01-27T07:16:04.062Z,1.50
2023-01-27T07:18:33.139Z,1.23
2023-01-27T07:21:01.639Z,1.23
2023-01-27T07:23:31.025Z,1.05
2023-01-27T07:26:00.912Z,1.40
2023-01-27T07:28:29.035Z,1.17
2023-01-27T07:31:04.323Z,1.20
2023-01-27T07:33:33.612Z,1.17
2023-01-27T07:36:02.883Z,1.60
2023-01-27T07:38:39.797Z,1.40
2023-01-27T07:41:08.512Z,1.30
2023-01-27T07:43:37.557Z,1.75
2023-01-27T07:46:11.058Z,2.00
2023-01-27T07:48:39.528Z,1.45
2023-01-27T07:51:07.508Z,1.65
2023-01-27T07:53:35.692Z,1.52
2023-01-27T07:56:03.692Z,1.85
2023-01-27T07:58:31.595Z,1.10
2023-01-27T08:01:00.222Z,1.20
2023-01-27T08:03:29.824Z,1.00
2023-01-27T08:05:58.113Z,2.40
2023-01-27T08:08:26.511Z,1.33
2023-01-27T08:10:54.921Z,1.30
2023-01-27T08:13:22.938Z,1.75
2023-01-27T08:15:57.414Z,1.38
2023-01-27T08:18:26.219Z,1.77
2023-01-27T08:20:56.629Z,1.33
2023-01-27T08:23:24.937Z,1.23
2023-01-27T08:25:54.001Z,1.52
2023-01-27T08:28:25.067Z,1.75
2023-01-27T08:30:53.819Z,1.48
2023-01-27T08:33:23.611Z,1.25
2023-01-27T08:35:52.536Z,1.40
2023-01-27T08:38:22.201Z,1.35
2023-01-27T08:40:51.199Z,1.60
2023-01-27T08:43:20.684Z,1.40
2023-01-27T08:45:49.028Z,1.75
2023-01-27T08:48:17.281Z,1.55
2023-01-27T08:50:45.290Z,1.50
2023-01-27T08:53:13.286Z,1.10
2023-01-27T08:55:42.593Z,1.42
2023-01-27T08:58:10.479Z,1.95
2023-01-27T09:00:38.919Z,1.75
2023-01-27T09:03:07.253Z,1.40
2023-01-27T09:05:37.761Z,1.88
2023-01-27T09:08:06.891Z,1.70
2023-01-27T09:10:38.488Z,1.98
2023-01-27T09:13:08.562Z,1.45
2023-01-27T09:15:37.048Z,1.85
2023-01-27T09:18:06.740Z,2.17
2023-01-27T09:20:37.330Z,1.67
2023-01-27T09:23:06.187Z,1.40
2023-01-27T09:25:34.871Z,1.48
2023-01-27T09:28:03.764Z,2.00
2023-01-27T09:30:33.533Z,1.88
2023-01-27T09:33:01.771Z,1.73
2023-01-27T09:35:37.403Z,1.33
2023-01-27T09:38:07.772Z,1.42
2023-01-27T09:40:49.344Z,1.38
2023-01-27T09:43:35.762Z,1.60
2023-01-27T09:46:34.256Z,1.42
2023-01-27T09:49:22.575Z,1.90
2023-01-27T09:52:05.253Z,1.95
2023-01-27T09:54:45.904Z,1.90
2023-01-27T09:57:22.641Z,1.80
2023-01-27T10:00:12.673Z,1.52
2023-01-27T10:03:10.850Z,1.50
2023-01-27T10:05:58.956Z,1.38
2023-01-27T10:08:46.145Z,1.38
2023-01-27T10:11:21.629Z,2.08
2023-01-27T10:14:06.413Z,2.70
2023-01-27T10:16:53.716Z,1.48
2023-01-27T10:19:44.669Z,1.10
2023-01-27T10:22:20.626Z,1.40
2023-01-27T10:25:06.962Z,1.20
2023-01-27T10:27:38.279Z,0.98
2023-01-27T10:30:15.279Z,1.15
2023-01-27T10:32:46.428Z,1.77
2023-01-27T10:35:20.900Z,1.42
2023-01-27T10:37:58.897Z,1.08
2023-01-27T10:40:38.595Z,1.35
2023-01-27T10:43:13.622Z,1.10
2023-01-27T10:45:50.466Z,1.00
2023-01-27T10:48:30.836Z,1.65
2023-01-27T10:51:04.878Z,1.63
2023-01-27T10:53:39.607Z,1.00
2023-01-27T10:56:13.046Z,1.00
2023-01-27T10:58:49.104Z,0.90
2023-01-27T11:01:22.566Z,1.50
2023-01-27T11:03:57.049Z,1.42
2023-01-27T11:06:30.632Z,1.95
2023-01-27T11:09:07.581Z,2.20
2023-01-27T11:11:45.778Z,1.98
2023-01-27T11:14:18.493Z,2.20
2023-01-27T11:16:51.066Z,1.95
2023-01-27T11:19:28.839Z,2.53
2023-01-27T11:22:07.886Z,1.90
2023-01-27T11:24:48.465Z,2.38
2023-01-27T11:27:26.155Z,2.10
2023-01-27T11:29:58.905Z,2.40
2023-01-27T11:32:40.089Z,2.23
2023-01-27T11:35:12.228Z,2.53
2023-01-27T11:37:43.174Z,2.08
2023-01-27T11:40:19.330Z,2.28
2023-01-27T11:42:47.625Z,2.40
2023-01-27T11:45:18.475Z,2.28
2023-01-27T11:47:48.992Z,2.50
2023-01-27T11:50:21.198Z,2.40
2023-01-27T11:52:56.505Z,2.50
2023-01-27T11:55:29.158Z,2.78
2023-01-27T11:58:06.852Z,2.95
2023-01-27T12:00:42.879Z,2.78
2023-01-27T12:03:20.030Z,2.60
2023-01-27T12:05:55.226Z,2.65
2023-01-27T12:08:45.152Z,3.35
2023-01-27T12:11:25.531Z,2.97
2023-01-27T12:13:57.042Z,3.05
2023-01-27T12:16:34.104Z,2.60
2023-01-27T12:19:05.529Z,2.72
2023-01-27T12:21:47.544Z,2.47
2023-01-27T12:24:26.260Z,2.92
2023-01-27T12:26:56.033Z,2.78
2023-01-27T12:29:29.559Z,2.63
2023-01-27T12:32:01.260Z,3.20
2023-01-27T12:34:37.081Z,3.05
2023-01-27T12:37:07.743Z,3.13
2023-01-27T12:39:46.444Z,3.50
2023-01-27T12:42:40.076Z,3.45
2023-01-27T12:45:30.525Z,3.17
2023-01-27T12:48:16.248Z,2.95
2023-01-27T12:50:55.002Z,2.97
2023-01-27T12:53:26.911Z,2.75
2023-01-27T12:56:03.664Z,2.50
2023-01-27T12:58:36.248Z,2.55
2023-01-27T13:01:09.461Z,2.35
2023-01-27T13:06:09.243Z,3.25
2023-01-27T13:08:40.949Z,3.05
2023-01-27T13:11:11.491Z,3.70
2023-01-27T13:13:50.001Z,3.13
2023-01-27T13:16:27.704Z,3.83
2023-01-27T13:18:57.444Z,2.75
2023-01-27T13:21:29.868Z,2.95
2023-01-27T13:24:00.531Z,3.15
2023-01-27T13:26:37.475Z,2.60
2023-01-27T13:29:14.254Z,4.15
2023-01-27T13:31:49.459Z,3.00
2023-01-27T13:34:25.911Z,3.38
2023-01-27T13:37:02.514Z,3.33
2023-01-27T13:39:46.802Z,3.05
2023-01-27T13:42:22.465Z,2.75
2023-01-27T13:45:03.942Z,3.00
2023-01-27T13:47:39.385Z,2.97
2023-01-27T13:50:25.675Z,2.90
2023-01-27T13:52:56.240Z,3.90
2023-01-27T13:55:47.505Z,1.98
2023-01-27T13:58:24.973Z,2.72
2023-01-27T14:01:05.034Z,1.65
2023-01-27T14:03:49.555Z,2.45
2023-01-27T14:06:32.476Z,1.75
2023-01-27T14:09:25.787Z,1.57
2023-01-27T14:12:01.654Z,2.42
2023-01-27T14:14:57.722Z,1.92
2023-01-27T14:17:35.169Z,1.58
2023-01-27T14:20:17.642Z,2.10
2023-01-27T14:22:54.682Z,24.98
2023-01-27T14:25:31.064Z,3.88
2023-01-27T14:28:10.817Z,1.60
2023-01-27T14:30:44.418Z,1.55
2023-01-27T14:35:52.604Z,2.15
2023-01-27T14:38:28.588Z,1.83
2023-01-27T14:41:11.398Z,1.67
2023-01-27T14:43:47.145Z,1.33
2023-01-27T14:46:25.940Z,1.92
2023-01-27T14:49:03.662Z,1.70
2023-01-27T14:51:38.739Z,2.20
2023-01-27T14:54:25.273Z,1.95
2023-01-27T14:57:08.456Z,2.28
2023-01-27T14:59:48.716Z,2.05
2023-01-27T15:02:34.789Z,2.60
2023-01-27T15:05:10.597Z,2.10
2023-01-27T15:07:46.333Z,2.97
2023-01-27T15:10:26.391Z,2.28
2023-01-27T15:13:19.838Z,2.10
2023-01-27T15:16:23.597Z,2.65
2023-01-27T15:19:20.744Z,2.70
2023-01-27T15:22:20.368Z,1.73
2023-01-27T15:25:20.419Z,2.05
2023-01-27T15:27:52.984Z,2.00
2023-01-27T15:30:26.550Z,2.08
2023-01-27T15:32:54.893Z,2.10
2023-01-27T15:35:41.144Z,2.83
2023-01-27T15:38:34.773Z,2.88
2023-01-27T15:41:07.498Z,2.55
2023-01-27T15:43:40.734Z,3.03
2023-01-27T15:46:29.769Z,2.38
2023-01-27T15:49:01.807Z,2.80
2023-01-27T15:51:36.059Z,2.60
2023-01-27T15:54:05.265Z,3.10
2023-01-27T15:56:46.687Z,2.38
2023-01-27T15:59:18.925Z,3.10
2023-01-27T16:01:49.779Z,2.40
2023-01-27T16:04:23.491Z,2.30
2023-01-27T16:09:31.433Z,2.30
2023-01-27T16:12:02.954Z,2.25
2023-01-27T16:14:40.777Z,2.03
2023-01-27T16:17:19.478Z,1.50
2023-01-27T16:19:56.208Z,2.30
2023-01-27T16:22:28.696Z,2.42
2023-01-27T16:25:02.617Z,2.88
2023-01-27T16:27:39.565Z,2.47
2023-01-27T16:30:16.047Z,2.00
2023-01-27T16:32:59.856Z,2.80
2023-01-27T16:35:28.057Z,2.53
2023-01-27T16:38:06.074Z,2.00
2023-01-27T16:40:36.675Z,2.17
2023-01-27T16:43:08.296Z,2.72
2023-01-27T16:45:45.418Z,2.30
2023-01-27T16:48:25.031Z,2.20
2023-01-27T16:50:55.103Z,1.95
2023-01-27T16:53:26.468Z,2.25
2023-01-27T16:56:00.097Z,1.88
2023-01-27T16:58:43.775Z,1.98
2023-01-27T17:01:21.788Z,2.38
2023-01-27T17:03:51.306Z,1.95
2023-01-27T17:06:19.362Z,2.10
2023-01-27T17:08:50.108Z,1.92
2023-01-27T17:11:22.637Z,2.17
2023-01-27T17:13:57.149Z,2.15
2023-01-27T17:16:28.917Z,2.60
2023-01-27T17:19:05.778Z,1.83
2023-01-27T17:21:37.958Z,2.20
2023-01-27T17:24:16.284Z,2.50
2023-01-27T17:26:48.829Z,1.77
2023-01-27T17:29:20.704Z,2.10
2023-01-27T17:31:49.192Z,2.20
2023-01-27T17:34:20.820Z,1.95
2023-01-27T17:37:16.023Z,2.05
2023-01-27T17:42:17.025Z,2.13
2023-01-27T17:44:45.456Z,2.20
2023-01-27T17:47:16.777Z,2.40
2023-01-27T17:49:46.120Z,2.50
2023-01-27T17:52:19.594Z,2.42
2023-01-27T17:57:23.589Z,2.45
2023-01-27T18:00:00.069Z,2.72
2023-01-27T18:02:31.168Z,3.47
2023-01-27T18:05:03.078Z,3.30
2023-01-27T18:07:32.524Z,3.63
2023-01-27T18:10:01.922Z,3.72
2023-01-27T18:12:33.962Z,3.88
2023-01-27T18:15:47.211Z,4.07
2023-01-27T18:18:24.144Z,4.30
2023-01-27T18:21:05.020Z,4.30
2023-01-27T18:23:36.354Z,4.65
2023-01-27T18:26:18.589Z,4.68
2023-01-27T18:28:51.313Z,4.63
2023-01-27T18:31:23.841Z,4.88
2023-01-27T18:34:00.373Z,5.50
2023-01-27T18:36:35.717Z,4.78
2023-01-27T18:39:05.344Z,4.15
2023-01-27T18:41:38.251Z,4.38
2023-01-27T18:44:08.468Z,3.85
2023-01-27T18:46:36.442Z,4.07
2023-01-27T18:49:06.971Z,4.10
2023-01-27T18:51:35.595Z,4.20
2023-01-27T18:54:04.891Z,4.32
2023-01-27T18:56:35.476Z,4.50
2023-01-27T18:59:03.983Z,4.30
2023-01-27T19:01:32.108Z,4.10
2023-01-27T19:04:00.887Z,3.33
2023-01-27T19:06:28.742Z,3.20
2023-01-27T19:08:56.705Z,3.75
2023-01-27T19:11:25.052Z,2.75
2023-01-27T19:13:54.608Z,3.00
2023-01-27T19:16:23.857Z,3.25
2023-01-27T19:18:51.802Z,2.33
2023-01-27T19:21:19.825Z,2.42
2023-01-27T19:23:49.585Z,2.90
2023-01-27T19:26:19.652Z,2.63
2023-01-27T19:28:50.215Z,2.60
2023-01-27T19:31:20.015Z,2.70
2023-01-27T19:33:48.629Z,2.90
2023-01-27T19:36:22.628Z,2.75
2023-01-27T19:38:53.966Z,2.67
2023-01-27T19:41:22.179Z,2.70
2023-01-27T19:43:50.790Z,2.60
2023-01-27T19:46:23.546Z,2.33
2023-01-27T19:48:52.037Z,2.60
2023-01-27T19:51:20.334Z,2.83
2023-01-27T19:53:48.492Z,3.53
2023-01-27T19:56:18.898Z,3.47
2023-01-27T19:58:49.952Z,3.72
2023-01-27T20:01:18.139Z,3.40
2023-01-27T20:03:47.898Z,2.53
2023-01-27T20:06:18.070Z,3.53
2023-01-27T20:08:46.356Z,3.08
2023-01-27T20:11:31.577Z,2.58
2023-01-27T20:14:00.771Z,4.00
2023-01-27T20:16:29.292Z,3.60
2023-01-27T20:19:00.163Z,3.60
2023-01-27T20:21:28.714Z,4.25
2023-01-27T20:23:57.158Z,3.80
2023-01-27T20:26:25.448Z,4.20
2023-01-27T20:28:53.555Z,4.00
2023-01-27T20:31:23.755Z,3.72
2023-01-27T20:33:52.196Z,3.92
2023-01-27T20:36:23.560Z,3.55
2023-01-27T20:38:52.751Z,7.05
2023-01-27T20:41:22.679Z,8.95
2023-01-27T20:43:55.681Z,5.80
2023-01-27T20:46:23.819Z,4.97
2023-01-27T20:48:51.908Z,4.63
2023-01-27T20:51:21.400Z,4.03
2023-01-27T20:53:49.516Z,3.67
2023-01-27T20:56:19.365Z,4.03
2023-01-27T20:58:48.630Z,4.25
2023-01-27T21:01:18.076Z,4.78
2023-01-27T21:03:46.195Z,4.55
2023-01-27T21:06:15.903Z,4.15
2023-01-27T21:08:47.596Z,4.55
2023-01-27T21:11:17.811Z,4.50
2023-01-27T21:13:46.350Z,3.97
2023-01-27T21:16:15.193Z,4.28
2023-01-27T21:18:44.155Z,4.35
2023-01-27T21:21:23.442Z,4.50
2023-01-27T21:23:53.543Z,5.30
2023-01-27T21:26:47.559Z,4.63
2023-01-27T21:29:15.729Z,4.63
2023-01-27T21:31:44.018Z,4.88
2023-01-27T21:34:12.395Z,4.75
2023-01-27T21:36:40.732Z,4.07
2023-01-27T21:39:10.167Z,4.82
2023-01-27T21:41:57.682Z,4.97
2023-01-27T21:44:44.957Z,4.85
2023-01-27T21:47:15.013Z,5.05
2023-01-27T21:50:04.190Z,4.65
2023-01-27T21:52:35.101Z,5.32
2023-01-27T21:55:08.611Z,5.00
2023-01-27T22:00:06.581Z,5.05
2023-01-27T22:02:42.110Z,5.00
2023-01-27T22:05:11.544Z,4.90
2023-01-27T22:07:40.607Z,4.63
2023-01-27T22:10:16.509Z,4.53
2023-01-27T22:12:45.193Z,4.40
2023-01-27T22:15:15.875Z,4.43
2023-01-27T22:17:44.920Z,4.75
2023-01-27T22:20:15.556Z,4.03
2023-01-27T22:22:43.583Z,4.45
2023-01-27T22:25:17.258Z,5.00
2023-01-27T22:27:47.188Z,4.30
2023-01-27T22:30:17.805Z,4.65
2023-01-27T22:32:46.913Z,4.55
2023-01-27T22:35:18.154Z,4.13
2023-01-27T22:37:48.869Z,5.10
2023-01-27T22:40:19.007Z,4.97
2023-01-27T22:42:49.676Z,5.50
2023-01-27T22:45:18.411Z,5.47
2023-01-27T22:47:47.148Z,5.57
2023-01-27T22:50:15.603Z,4.70
2023-01-27T22:52:43.845Z,5.63
2023-01-27T22:55:14.143Z,5.40
2023-01-27T22:57:47.803Z,5.57
2023-01-27T23:00:17.228Z,5.40
2023-01-27T23:02:45.966Z,5.25
2023-01-27T23:05:15.772Z,5.20
2023-01-27T23:07:43.905Z,5.53
2023-01-27T23:10:12.794Z,5.65
2023-01-27T23:12:41.056Z,5.25
2023-01-27T23:15:12.616Z,5.40
2023-01-27T23:17:41.581Z,5.35
2023-01-27T23:20:11.367Z,5.68
2023-01-27T23:22:39.388Z,5.03
2023-01-27T23:25:08.521Z,6.43
2023-01-27T23:27:36.679Z,5.70
2023-01-27T23:30:09.044Z,5.65
2023-01-27T23:32:39.104Z,5.10
2023-01-27T23:35:08.499Z,4.53
2023-01-27T23:37:37.762Z,5.28
2023-01-27T23:40:08.469Z,5.18
2023-01-27T23:42:36.653Z,5.47
2023-01-27T23:45:06.231Z,5.25
2023-01-27T23:47:34.429Z,4.90
2023-01-27T23:50:04.672Z,5.30
2023-01-27T23:52:34.871Z,5.63
2023-01-27T23:55:03.184Z,5.80
2023-01-27T23:57:31.448Z,5.22
2023-01-27T23:59:59.427Z,5.38
